createdAt,value
2022-09-11T00:00:53.173Z,95.70
2022-09-11T00:03:21.480Z,95.70
2022-09-11T00:05:49.065Z,95.70
2022-09-11T00:08:17.082Z,95.70
2022-09-11T00:10:44.979Z,95.70
2022-09-11T00:13:22.320Z,95.70
2022-09-11T00:15:50.290Z,95.70
2022-09-11T00:18:21.644Z,95.70
2022-09-11T00:20:56.206Z,95.70
2022-09-11T00:23:24.705Z,95.80
2022-09-11T00:25:52.505Z,95.90
2022-09-11T00:28:20.989Z,95.90
2022-09-11T00:30:56.742Z,95.90
2022-09-11T00:33:23.887Z,96.00
2022-09-11T00:36:12.734Z,95.90
2022-09-11T00:38:40.151Z,95.90
2022-09-11T00:41:08.804Z,95.90
2022-09-11T00:44:08.407Z,95.90
2022-09-11T00:46:35.538Z,95.90
2022-09-11T00:49:07.653Z,95.90
2022-09-11T00:51:36.414Z,95.90
2022-09-11T00:54:04.436Z,95.90
2022-09-11T00:56:32.443Z,95.90
2022-09-11T00:59:01.008Z,95.90
2022-09-11T01:01:28.177Z,95.90
2022-09-11T01:03:56.010Z,95.90
2022-09-11T01:06:24.241Z,95.90
2022-09-11T01:08:52.516Z,95.80
2022-09-11T01:11:40.424Z,95.80
2022-09-11T01:14:13.268Z,95.80
2022-09-11T01:16:42.832Z,95.80
2022-09-11T01:19:15.669Z,95.90
2022-09-11T01:22:00.695Z,95.80
2022-09-11T01:24:46.882Z,95.80
2022-09-11T01:27:32.847Z,95.90
2022-09-11T01:30:02.776Z,95.90
2022-09-11T01:32:41.343Z,95.80
2022-09-11T01:35:24.920Z,95.80
2022-09-11T01:38:04.669Z,95.80
2022-09-11T01:40:45.975Z,95.80
2022-09-11T01:43:16.182Z,95.80
2022-09-11T01:45:46.133Z,95.80
2022-09-11T01:48:15.910Z,95.90
2022-09-11T01:50:44.900Z,95.80
2022-09-11T01:53:14.538Z,95.90
2022-09-11T01:55:48.300Z,95.90
2022-09-11T01:58:20.375Z,95.90
2022-09-11T02:00:49.811Z,95.90
2022-09-11T02:03:19.168Z,95.80
2022-09-11T02:05:48.985Z,95.90
2022-09-11T02:08:29.959Z,95.80
2022-09-11T02:11:03.433Z,95.90
2022-09-11T02:13:42.424Z,95.80
2022-09-11T02:16:16.653Z,95.80
2022-09-11T02:18:57.637Z,95.90
2022-09-11T02:21:24.731Z,95.80
2022-09-11T02:23:51.936Z,95.80
2022-09-11T02:26:19.946Z,95.80
2022-09-11T02:28:47.266Z,96.00
2022-09-11T02:31:14.519Z,95.80
2022-09-11T02:33:43.514Z,95.80
2022-09-11T02:36:10.797Z,95.80
2022-09-11T02:38:55.575Z,95.80
2022-09-11T02:41:32.056Z,95.80
2022-09-11T02:43:59.180Z,95.80
2022-09-11T02:46:38.908Z,95.80
2022-09-11T02:49:20.621Z,95.80
2022-09-11T02:51:57.068Z,95.80
2022-09-11T02:54:29.040Z,96.00
2022-09-11T02:57:02.256Z,95.80
2022-09-11T02:59:38.129Z,95.80
2022-09-11T03:02:09.608Z,95.80
2022-09-11T03:04:37.657Z,95.80
2022-09-11T03:07:05.188Z,95.80
2022-09-11T03:09:34.775Z,95.80
2022-09-11T03:12:08.058Z,95.80
2022-09-11T03:14:38.125Z,95.80
2022-09-11T03:17:06.082Z,95.70
2022-09-11T03:19:34.946Z,95.80
2022-09-11T03:22:03.019Z,95.80
2022-09-11T03:24:30.227Z,95.80
2022-09-11T03:26:57.334Z,95.80
2022-09-11T03:29:24.881Z,95.80
2022-09-11T03:31:52.725Z,95.80
2022-09-11T03:34:20.094Z,95.70
2022-09-11T03:36:48.011Z,95.80
2022-09-11T03:39:15.226Z,95.70
2022-09-11T03:41:42.262Z,95.80
2022-09-11T03:44:09.724Z,95.80
2022-09-11T03:46:36.994Z,95.80
2022-09-11T03:49:04.148Z,95.70
2022-09-11T03:51:32.041Z,95.70
2022-09-11T03:54:02.306Z,95.70
2022-09-11T03:56:30.991Z,95.70
2022-09-11T03:59:00.036Z,95.80
2022-09-11T04:01:27.857Z,95.80
2022-09-11T04:03:55.984Z,95.70
2022-09-11T04:06:32.995Z,95.80
2022-09-11T04:09:00.959Z,95.80
2022-09-11T04:11:28.091Z,95.70
2022-09-11T04:13:56.235Z,95.70
2022-09-11T04:16:26.434Z,95.80
2022-09-11T04:18:56.062Z,95.70
2022-09-11T04:21:24.411Z,95.80
2022-09-11T04:23:55.871Z,95.70
2022-09-11T04:26:25.139Z,95.80
2022-09-11T04:28:58.511Z,95.80
2022-09-11T04:31:27.615Z,95.80
2022-09-11T04:33:57.758Z,95.80
2022-09-11T04:36:29.952Z,95.70
2022-09-11T04:38:58.232Z,95.70
2022-09-11T04:41:25.417Z,95.70
2022-09-11T04:44:04.902Z,95.70
2022-09-11T04:46:34.581Z,95.70
2022-09-11T04:49:03.335Z,95.80
2022-09-11T04:51:32.581Z,95.80
2022-09-11T04:54:00.703Z,95.70
2022-09-11T04:56:37.861Z,95.70
2022-09-11T04:59:09.512Z,95.70
2022-09-11T05:01:37.875Z,95.80
2022-09-11T05:04:05.586Z,95.70
2022-09-11T05:06:32.713Z,95.70
2022-09-11T05:09:04.502Z,95.70
2022-09-11T05:11:34.422Z,95.70
2022-09-11T05:14:01.661Z,95.70
2022-09-11T05:16:31.280Z,95.70
2022-09-11T05:18:59.314Z,95.70
2022-09-11T05:21:27.156Z,95.70
2022-09-11T05:23:55.476Z,95.70
2022-09-11T05:26:23.665Z,95.70
2022-09-11T05:28:54.950Z,95.70
2022-09-11T05:31:22.710Z,95.70
2022-09-11T05:33:49.832Z,95.70
2022-09-11T05:36:17.875Z,95.60
2022-09-11T05:38:45.327Z,95.70
2022-09-11T05:41:13.670Z,95.70
2022-09-11T05:43:41.244Z,95.80
2022-09-11T05:46:11.572Z,95.90
2022-09-11T05:48:39.288Z,95.90
2022-09-11T05:51:10.455Z,96.10
2022-09-11T05:53:38.009Z,96.30
2022-09-11T05:56:07.030Z,96.40
2022-09-11T05:58:34.282Z,96.40
2022-09-11T06:01:03.934Z,96.50
2022-09-11T06:03:34.656Z,96.60
2022-09-11T06:06:02.366Z,96.70
2022-09-11T06:08:30.916Z,96.80
2022-09-11T06:10:58.472Z,97.10
2022-09-11T06:13:26.448Z,97.10
2022-09-11T06:15:53.690Z,97.00
2022-09-11T06:18:20.959Z,97.10
2022-09-11T06:20:58.705Z,97.40
2022-09-11T06:23:26.999Z,97.80
2022-09-11T06:26:02.466Z,97.70
2022-09-11T06:28:30.544Z,98.20
2022-09-11T06:30:58.732Z,98.30
2022-09-11T06:33:26.780Z,99.20
2022-09-11T06:35:58.661Z,99.60
2022-09-11T06:38:26.786Z,99.00
2022-09-11T06:40:54.686Z,99.00
2022-09-11T06:43:22.120Z,99.00
2022-09-11T06:45:49.630Z,99.00
2022-09-11T06:48:17.474Z,98.90
2022-09-11T06:50:45.771Z,98.90
2022-09-11T06:53:14.153Z,98.90
2022-09-11T06:55:48.407Z,99.10
2022-09-11T06:58:17.007Z,98.90
2022-09-11T07:00:44.803Z,98.80
2022-09-11T07:03:12.718Z,98.90
2022-09-11T07:05:45.112Z,99.00
2022-09-11T07:08:13.233Z,98.80
2022-09-11T07:10:42.224Z,98.50
2022-09-11T07:13:09.483Z,98.10
2022-09-11T07:15:37.243Z,98.00
2022-09-11T07:18:05.424Z,97.90
2022-09-11T07:20:32.564Z,97.80
2022-09-11T07:22:59.582Z,97.80
2022-09-11T07:25:28.871Z,97.70
2022-09-11T07:27:55.934Z,97.70
2022-09-11T07:30:23.449Z,97.70
2022-09-11T07:32:54.079Z,97.70
2022-09-11T07:35:21.484Z,97.60
2022-09-11T07:37:51.030Z,97.60
2022-09-11T07:40:18.956Z,97.60
2022-09-11T07:42:46.284Z,97.60
2022-09-11T07:45:13.419Z,97.60
2022-09-11T07:47:41.120Z,97.60
2022-09-11T07:50:08.414Z,97.60
2022-09-11T07:52:37.032Z,97.50
2022-09-11T07:55:06.009Z,97.50
2022-09-11T07:57:35.169Z,97.50
2022-09-11T08:00:07.034Z,97.70
2022-09-11T08:02:48.171Z,97.50
2022-09-11T08:05:19.738Z,97.50
2022-09-11T08:07:47.067Z,97.40
2022-09-11T08:10:27.165Z,97.40
2022-09-11T08:12:59.207Z,97.30
2022-09-11T08:15:28.462Z,97.30
2022-09-11T08:17:55.890Z,97.30
2022-09-11T08:20:23.628Z,97.30
2022-09-11T08:22:51.061Z,97.20
2022-09-11T08:25:19.180Z,97.20
2022-09-11T08:27:46.844Z,97.20
2022-09-11T08:30:17.426Z,97.20
2022-09-11T08:32:44.422Z,97.20
2022-09-11T08:35:11.538Z,97.20
2022-09-11T08:37:40.103Z,97.20
2022-09-11T08:40:08.141Z,97.20
2022-09-11T08:42:36.626Z,97.20
2022-09-11T08:45:07.515Z,97.10
2022-09-11T08:47:38.848Z,97.10
2022-09-11T08:50:26.283Z,97.10
2022-09-11T08:52:56.879Z,97.00
2022-09-11T08:55:32.746Z,97.00
2022-09-11T08:58:26.679Z,97.00
2022-09-11T09:01:19.333Z,97.00
2022-09-11T09:04:03.982Z,96.90
2022-09-11T09:06:54.081Z,96.90
2022-09-11T09:09:46.902Z,96.90
2022-09-11T09:12:16.076Z,96.90
2022-09-11T09:15:01.868Z,96.90
2022-09-11T09:17:32.828Z,96.80
2022-09-11T09:20:03.814Z,97.00
2022-09-11T09:22:43.874Z,96.80
2022-09-11T09:25:15.338Z,96.70
2022-09-11T09:27:45.358Z,96.80
2022-09-11T09:30:17.068Z,96.80
2022-09-11T09:32:51.026Z,96.80
2022-09-11T09:35:23.807Z,96.70
2022-09-11T09:37:54.270Z,96.70
2022-09-11T09:40:24.422Z,96.80
2022-09-11T09:42:54.624Z,96.80
2022-09-11T09:45:39.168Z,96.70
2022-09-11T09:48:08.694Z,96.80
2022-09-11T09:50:39.231Z,96.70
2022-09-11T09:53:29.284Z,96.70
2022-09-11T09:55:58.547Z,96.70
2022-09-11T09:58:27.131Z,96.60
2022-09-11T10:00:54.229Z,96.60
2022-09-11T10:03:23.030Z,96.60
2022-09-11T10:05:50.920Z,96.60
2022-09-11T10:08:26.491Z,96.50
2022-09-11T10:10:58.222Z,96.60
2022-09-11T10:13:28.181Z,96.50
2022-09-11T10:16:19.266Z,96.50
2022-09-11T10:18:47.147Z,96.50
2022-09-11T10:21:33.400Z,96.50
2022-09-11T10:24:02.174Z,96.50
2022-09-11T10:26:32.063Z,96.50
2022-09-11T10:29:12.125Z,96.50
2022-09-11T10:31:40.955Z,96.50
2022-09-11T10:34:15.087Z,96.50
2022-09-11T10:36:51.623Z,96.40
2022-09-11T10:39:19.353Z,96.40
2022-09-11T10:41:52.135Z,96.40
2022-09-11T10:44:21.164Z,96.40
2022-09-11T10:47:03.775Z,96.40
2022-09-11T10:49:30.874Z,96.30
2022-09-11T10:51:59.318Z,96.30
2022-09-11T10:54:33.599Z,96.20
2022-09-11T10:57:14.659Z,96.20
2022-09-11T10:59:46.215Z,96.20
2022-09-11T11:02:19.307Z,96.20
2022-09-11T11:04:47.148Z,96.20
2022-09-11T11:07:17.695Z,96.20
2022-09-11T11:10:02.614Z,96.20
2022-09-11T11:12:40.136Z,96.20
2022-09-11T11:15:07.277Z,96.10
2022-09-11T11:17:50.088Z,96.10
2022-09-11T11:20:25.357Z,96.10
2022-09-11T11:23:02.816Z,96.10
2022-09-11T11:25:51.237Z,96.30
2022-09-11T11:28:41.477Z,96.10
2022-09-11T11:31:11.655Z,96.10
2022-09-11T11:33:39.628Z,96.00
2022-09-11T11:36:15.280Z,96.00
2022-09-11T11:38:48.343Z,96.00
2022-09-11T11:41:19.561Z,96.00
2022-09-11T11:43:48.427Z,95.90
2022-09-11T11:46:20.049Z,95.90
2022-09-11T11:48:47.257Z,95.90
2022-09-11T11:51:24.434Z,95.90
2022-09-11T11:53:59.814Z,95.90
2022-09-11T11:56:42.788Z,95.90
2022-09-11T11:59:17.022Z,95.90
2022-09-11T12:01:44.085Z,95.90
2022-09-11T12:04:30.336Z,95.90
2022-09-11T12:06:58.586Z,95.90
2022-09-11T12:09:31.565Z,95.90
2022-09-11T12:12:04.380Z,95.90
2022-09-11T12:14:33.764Z,95.90
2022-09-11T12:17:17.622Z,95.90
2022-09-11T12:20:03.803Z,95.90
2022-09-11T12:22:38.476Z,95.80
2022-09-11T12:25:25.471Z,95.80
2022-09-11T12:27:54.055Z,95.80
2022-09-11T12:30:23.102Z,95.80
2022-09-11T12:32:51.223Z,95.70
2022-09-11T12:35:41.628Z,95.70
2022-09-11T12:38:08.982Z,95.70
2022-09-11T12:40:39.298Z,95.70
2022-09-11T12:43:19.007Z,95.70
2022-09-11T12:45:49.304Z,95.60
2022-09-11T12:48:17.726Z,95.60
2022-09-11T12:50:54.116Z,95.50
2022-09-11T12:53:26.871Z,95.50
2022-09-11T12:56:01.113Z,95.40
2022-09-11T12:58:31.234Z,95.40
2022-09-11T13:01:06.772Z,95.50
2022-09-11T13:03:34.337Z,95.50
2022-09-11T13:06:03.368Z,95.50
2022-09-11T13:08:34.110Z,95.50
2022-09-11T13:11:19.773Z,95.50
2022-09-11T13:13:47.927Z,95.50
2022-09-11T13:16:19.188Z,95.40
2022-09-11T13:18:46.357Z,95.40
2022-09-11T13:21:14.845Z,95.40
2022-09-11T13:23:42.961Z,95.40
2022-09-11T13:26:15.841Z,95.40
2022-09-11T13:28:45.013Z,95.40
2022-09-11T13:31:16.958Z,95.30
2022-09-11T13:33:49.227Z,95.30
2022-09-11T13:36:16.680Z,95.30
2022-09-11T13:38:44.217Z,95.40
2022-09-11T13:41:16.722Z,95.40
2022-09-11T13:43:48.674Z,95.40
2022-09-11T13:46:15.871Z,95.30
2022-09-11T13:48:44.147Z,95.30
2022-09-11T13:51:12.787Z,95.30
2022-09-11T13:53:40.757Z,95.40
2022-09-11T13:56:21.299Z,95.30
2022-09-11T13:58:52.881Z,95.50
2022-09-11T14:01:20.624Z,95.20
2022-09-11T14:03:48.891Z,95.20
2022-09-11T14:06:16.961Z,95.10
2022-09-11T14:08:49.942Z,95.00
2022-09-11T14:11:22.597Z,94.80
2022-09-11T14:13:53.265Z,94.70
2022-09-11T14:16:26.095Z,94.60
2022-09-11T14:18:55.526Z,94.50
2022-09-11T14:21:24.062Z,94.40
2022-09-11T14:23:52.537Z,94.40
2022-09-11T14:26:21.610Z,94.30
2022-09-11T14:29:00.362Z,94.30
2022-09-11T14:31:30.197Z,94.20
2022-09-11T14:34:03.284Z,94.20
2022-09-11T14:36:30.388Z,94.20
2022-09-11T14:38:58.260Z,94.20
2022-09-11T14:41:25.549Z,94.10
2022-09-11T14:43:52.990Z,94.10
2022-09-11T14:46:20.071Z,94.00
2022-09-11T14:48:47.099Z,94.00
2022-09-11T14:51:14.156Z,93.90
2022-09-11T14:53:43.165Z,93.80
2022-09-11T14:56:10.472Z,93.80
2022-09-11T14:58:38.103Z,93.80
2022-09-11T15:01:05.294Z,93.90
2022-09-11T15:03:32.379Z,94.00
2022-09-11T15:05:59.495Z,94.00
2022-09-11T15:08:26.761Z,94.10
2022-09-11T15:10:53.899Z,94.20
2022-09-11T15:13:21.740Z,94.20
2022-09-11T15:15:50.938Z,94.20
2022-09-11T15:18:18.595Z,94.30
2022-09-11T15:20:45.667Z,94.30
2022-09-11T15:23:12.789Z,94.40
2022-09-11T15:25:40.898Z,94.40
2022-09-11T15:28:10.079Z,94.40
2022-09-11T15:30:37.811Z,94.40
2022-09-11T15:33:05.275Z,94.50
2022-09-11T15:35:33.123Z,94.50
2022-09-11T15:38:00.467Z,94.50
2022-09-11T15:40:27.470Z,94.50
2022-09-11T15:42:56.601Z,94.40
2022-09-11T15:45:23.856Z,94.40
2022-09-11T15:47:50.959Z,94.40
2022-09-11T15:50:24.264Z,94.40
2022-09-11T15:52:51.316Z,94.40
2022-09-11T15:55:18.342Z,94.40
2022-09-11T15:57:45.359Z,94.40
2022-09-11T16:00:14.462Z,94.40
2022-09-11T16:02:42.912Z,94.40
2022-09-11T16:05:10.254Z,94.40
2022-09-11T16:07:37.292Z,94.40
2022-09-11T16:10:04.492Z,94.40
2022-09-11T16:12:31.580Z,94.40
2022-09-11T16:14:59.070Z,94.40
2022-09-11T16:17:31.100Z,94.40
2022-09-11T16:19:58.725Z,94.40
2022-09-11T16:22:26.706Z,94.40
2022-09-11T16:24:54.154Z,94.40
2022-09-11T16:27:21.260Z,94.40
2022-09-11T16:32:39.148Z,94.40
2022-09-11T16:35:08.255Z,94.40
2022-09-11T16:37:35.445Z,94.40
2022-09-11T16:40:03.755Z,94.40
2022-09-11T16:42:31.323Z,94.40
2022-09-11T16:44:58.340Z,94.40
2022-09-11T16:47:25.390Z,94.40
2022-09-11T16:50:08.947Z,94.40
2022-09-11T16:52:39.003Z,94.40
2022-09-11T16:55:07.467Z,94.40
2022-09-11T16:57:34.546Z,94.40
2022-09-11T17:00:01.894Z,94.40
2022-09-11T17:02:28.983Z,94.40
2022-09-11T17:04:55.980Z,94.40
2022-09-11T17:07:23.832Z,94.40
2022-09-11T17:09:50.874Z,94.30
2022-09-11T17:12:18.198Z,94.40
2022-09-11T17:14:45.226Z,94.30
2022-09-11T17:17:12.343Z,94.30
2022-09-11T17:19:39.385Z,94.30
2022-09-11T17:22:07.215Z,94.30
2022-09-11T17:25:06.540Z,94.30
2022-09-11T17:27:36.148Z,94.30
2022-09-11T17:30:04.211Z,94.30
2022-09-11T17:32:31.292Z,94.30
2022-09-11T17:34:58.507Z,94.30
2022-09-11T17:37:26.438Z,94.30
2022-09-11T17:39:53.726Z,94.30
2022-09-11T17:42:20.839Z,94.30
2022-09-11T17:44:47.884Z,94.30
2022-09-11T17:47:14.931Z,94.30
2022-09-11T17:49:43.003Z,94.30
2022-09-11T17:52:10.073Z,94.20
2022-09-11T17:54:37.047Z,94.30
2022-09-11T17:57:04.157Z,94.30
2022-09-11T17:59:31.217Z,94.30
2022-09-11T18:01:59.898Z,94.30
2022-09-11T18:04:26.980Z,94.30
2022-09-11T18:06:54.339Z,94.20
2022-09-11T18:09:21.661Z,94.20
2022-09-11T18:11:50.836Z,94.20
2022-09-11T18:14:18.779Z,94.20
2022-09-11T18:16:47.280Z,94.20
2022-09-11T18:19:15.420Z,94.20
2022-09-11T18:21:44.682Z,94.20
2022-09-11T18:24:21.587Z,94.20
2022-09-11T18:26:49.977Z,94.20
2022-09-11T18:29:19.007Z,94.20
2022-09-11T18:31:49.887Z,94.20
2022-09-11T18:34:19.153Z,94.20
2022-09-11T18:36:46.772Z,94.20
2022-09-11T18:39:14.769Z,94.20
2022-09-11T18:41:42.003Z,94.60
2022-09-11T18:44:16.147Z,94.50
2022-09-11T18:46:45.925Z,95.40
2022-09-11T18:49:14.100Z,98.80
2022-09-11T18:51:42.238Z,99.90
2022-09-11T18:54:14.814Z,99.90
2022-09-11T18:56:42.713Z,99.60
2022-09-11T18:59:10.251Z,99.50
2022-09-11T19:01:37.473Z,99.10
2022-09-11T19:04:10.045Z,99.20
2022-09-11T19:06:40.561Z,99.40
2022-09-11T19:09:10.177Z,99.40
2022-09-11T19:11:37.467Z,99.40
2022-09-11T19:14:06.275Z,99.30
2022-09-11T19:16:33.841Z,99.10
2022-09-11T19:19:01.044Z,98.90
2022-09-11T19:21:28.184Z,98.90
2022-09-11T19:23:57.708Z,98.80
2022-09-11T19:26:26.029Z,98.90
2022-09-11T19:28:54.021Z,99.20
2022-09-11T19:31:21.666Z,99.00
2022-09-11T19:33:48.776Z,99.00
2022-09-11T19:36:17.669Z,99.00
2022-09-11T19:38:45.709Z,99.10
2022-09-11T19:41:14.276Z,99.10
2022-09-11T19:43:41.945Z,99.20
2022-09-11T19:46:10.438Z,99.10
2022-09-11T19:48:40.560Z,99.20
2022-09-11T19:51:10.613Z,99.20
2022-09-11T19:53:39.194Z,99.20
2022-09-11T19:56:06.441Z,99.40
2022-09-11T19:58:33.613Z,99.50
2022-09-11T20:01:10.316Z,99.50
2022-09-11T20:03:39.293Z,99.90
2022-09-11T20:06:06.501Z,99.90
2022-09-11T20:08:34.848Z,99.90
2022-09-11T20:11:03.023Z,99.90
2022-09-11T20:13:30.116Z,99.90
2022-09-11T20:16:01.938Z,99.90
2022-09-11T20:18:29.005Z,99.90
2022-09-11T20:21:00.526Z,99.90
2022-09-11T20:23:27.758Z,99.90
2022-09-11T20:25:55.204Z,99.90
2022-09-11T20:28:22.498Z,99.90
2022-09-11T20:30:49.856Z,99.90
2022-09-11T20:33:19.873Z,99.90
2022-09-11T20:35:46.925Z,99.90
2022-09-11T20:38:14.329Z,99.90
2022-09-11T20:40:43.834Z,99.90
2022-09-11T20:43:11.079Z,99.90
2022-09-11T20:45:38.157Z,99.90
2022-09-11T20:48:05.238Z,99.90
2022-09-11T20:50:32.689Z,99.90
2022-09-11T20:53:00.538Z,99.90
2022-09-11T20:55:27.718Z,99.90
2022-09-11T20:57:55.277Z,99.90
2022-09-11T21:00:22.340Z,99.90
2022-09-11T21:02:49.398Z,99.90
2022-09-11T21:05:16.405Z,99.90
2022-09-11T21:07:43.412Z,99.90
2022-09-11T21:10:10.488Z,99.90
2022-09-11T21:12:37.680Z,99.90
2022-09-11T21:15:06.593Z,99.90
2022-09-11T21:17:33.665Z,99.90
2022-09-11T21:20:00.732Z,99.90
2022-09-11T21:22:27.733Z,99.90
2022-09-11T21:24:54.998Z,99.90
2022-09-11T21:27:22.028Z,99.90
2022-09-11T21:29:49.143Z,99.90
2022-09-11T21:32:16.214Z,99.90
2022-09-11T21:34:43.287Z,99.90
2022-09-11T21:37:10.319Z,99.90
2022-09-11T21:39:38.028Z,99.90
2022-09-11T21:42:08.699Z,99.90
2022-09-11T21:44:38.347Z,99.90
2022-09-11T21:47:05.508Z,99.90
2022-09-11T21:49:32.592Z,99.90
2022-09-11T21:51:59.648Z,99.90
2022-09-11T21:54:31.229Z,99.90
2022-09-11T21:56:58.876Z,99.90
2022-09-11T21:59:26.045Z,99.90
2022-09-11T22:01:53.345Z,99.90
2022-09-11T22:04:20.675Z,99.90
2022-09-11T22:06:47.710Z,99.90
2022-09-11T22:09:20.195Z,99.90
2022-09-11T22:11:47.946Z,99.90
2022-09-11T22:14:19.068Z,99.90
2022-09-11T22:16:46.264Z,99.90
2022-09-11T22:19:13.234Z,99.90
2022-09-11T22:21:40.877Z,99.90
2022-09-11T22:24:08.010Z,99.90
2022-09-11T22:26:35.161Z,99.90
2022-09-11T22:29:02.211Z,99.90
2022-09-11T22:31:29.297Z,99.90
2022-09-11T22:33:57.446Z,99.80
2022-09-11T22:36:26.057Z,99.90
2022-09-11T22:38:53.564Z,99.90
2022-09-11T22:41:20.603Z,99.90
2022-09-11T22:43:48.769Z,99.90
2022-09-11T22:46:16.462Z,99.90
2022-09-11T22:48:43.826Z,99.90
2022-09-11T22:51:11.113Z,99.90
2022-09-11T22:53:41.353Z,99.90
2022-09-11T22:56:09.396Z,99.90
2022-09-11T22:58:38.279Z,99.90
2022-09-11T23:01:06.575Z,99.90
2022-09-11T23:03:33.584Z,99.90
2022-09-11T23:06:20.198Z,99.90
2022-09-11T23:08:47.664Z,99.90
2022-09-11T23:11:16.061Z,99.90
2022-09-11T23:13:43.657Z,99.80
2022-09-11T23:16:12.618Z,99.80
2022-09-11T23:18:39.688Z,99.80
2022-09-11T23:21:06.832Z,99.80
2022-09-11T23:23:35.653Z,99.80
2022-09-11T23:26:05.861Z,99.80
2022-09-11T23:28:36.540Z,99.80
2022-09-11T23:31:04.234Z,99.70
2022-09-11T23:33:31.248Z,99.80
2022-09-11T23:35:58.288Z,99.80
2022-09-11T23:38:25.309Z,99.70
2022-09-11T23:40:53.340Z,99.70
2022-09-11T23:43:20.326Z,99.70
2022-09-11T23:45:47.350Z,99.70
2022-09-11T23:48:14.419Z,99.70
2022-09-11T23:50:41.785Z,99.70
2022-09-11T23:53:08.834Z,99.90
2022-09-11T23:55:39.499Z,99.70
2022-09-11T23:58:09.071Z,99.60
